Time;durP1;ratioP1;P1;durP2;ratioP2;P2;SDS_P1;SDS_P2;PMS_P1;PMS_P2;Temp;Humidity;BMP_temperature;BMP_pressure;BME280_temperature;BME280_humidity;BME280_pressure;Samples;Min_cycle;Max_cycle;Signal;HPM_P1;HPM_P2
2022/04/14 00:01:22;;;;;;;17.35;11.60;;;;;;;9.08;60.64;101101.47;5068663;28;20040;-76
2022/04/14 00:03:57;;;;;;;13.95;11.25;;;;;;;9.21;61.30;101110.44;5068705;28;20048;-76
2022/04/14 00:06:23;;;;;;;16.30;11.30;;;;;;;9.24;59.94;101093.03;5066694;28;20448;-75
2022/04/14 00:08:50;;;;;;;16.73;11.52;;;;;;;9.10;62.87;101112.88;5068833;28;20115;-75
2022/04/14 00:11:16;;;;;;;14.30;10.05;;;;;;;9.01;60.57;101105.75;5069205;28;20058;-76
2022/04/14 00:13:41;;;;;;;37.90;10.55;;;;;;;9.19;59.72;101110.41;5067369;28;20052;-75
2022/04/14 00:16:07;;;;;;;14.90;10.65;;;;;;;9.20;59.40;101114.81;5069436;28;20089;-75
2022/04/14 00:18:32;;;;;;;13.65;9.18;;;;;;;9.23;60.73;101108.75;5072349;28;20825;-75
2022/04/14 00:20:58;;;;;;;16.88;11.38;;;;;;;9.20;60.93;101093.88;5071769;28;20040;-75
2022/04/14 00:23:32;;;;;;;17.08;10.15;;;;;;;9.15;63.12;101098.13;5071169;28;20170;-75
2022/04/14 00:25:57;;;;;;;14.75;10.90;;;;;;;8.97;65.05;101096.09;5065209;28;20056;-74
2022/04/14 00:28:23;;;;;;;14.75;10.00;;;;;;;9.05;65.48;101086.59;5069641;28;20044;-77
2022/04/14 00:30:48;;;;;;;13.15;11.20;;;;;;;9.14;64.31;101085.91;5068749;28;20048;-76
2022/04/14 00:33:14;;;;;;;15.50;10.90;;;;;;;9.04;64.52;101097.94;5069446;28;20052;-76
2022/04/14 00:35:39;;;;;;;16.50;10.93;;;;;;;8.78;61.71;101086.13;5067400;28;20064;-77
2022/04/14 00:38:05;;;;;;;15.30;10.00;;;;;;;9.17;59.76;101085.94;5071968;28;20471;-77
2022/04/14 00:40:30;;;;;;;13.63;10.23;;;;;;;9.19;61.91;101094.69;5071492;28;20135;-76
2022/04/14 00:42:56;;;;;;;15.93;11.52;;;;;;;9.24;64.45;101086.91;5068604;28;21023;-76
2022/04/14 00:45:21;;;;;;;11.55;9.45;;;;;;;9.05;62.46;101080.50;5071156;28;20105;-75
2022/04/14 00:47:47;;;;;;;15.10;9.63;;;;;;;9.03;63.72;101084.81;5068739;28;20055;-76
2022/04/14 00:50:15;;;;;;;16.00;9.95;;;;;;;9.16;61.36;101091.16;5070570;28;20593;-75
2022/04/14 00:52:46;;;;;;;16.38;10.40;;;;;;;9.33;59.09;101091.44;5070073;28;20124;-76
2022/04/14 00:55:15;;;;;;;22.80;10.80;;;;;;;9.32;58.38;101073.94;5068357;28;20066;-76
2022/04/14 00:57:43;;;;;;;14.15;9.68;;;;;;;9.42;58.09;101083.72;5068098;28;20036;-75
2022/04/14 01:00:09;;;;;;;13.57;10.48;;;;;;;9.47;58.18;101080.31;5070133;28;20550;-76
2022/04/14 01:02:41;;;;;;;20.45;10.27;;;;;;;9.45;59.69;101084.63;5067632;28;20031;-76
2022/04/14 01:05:09;;;;;;;17.02;9.93;;;;;;;9.31;60.00;101086.16;5066584;28;20141;-74
2022/04/14 01:07:36;;;;;;;16.60;10.38;;;;;;;9.21;62.22;101090.38;5069829;28;20043;-75
2022/04/14 01:10:04;;;;;;;15.60;10.90;;;;;;;9.19;62.95;101075.50;5068613;28;20046;-77
2022/04/14 01:12:32;;;;;;;17.67;10.32;;;;;;;9.35;63.35;101089.72;5068833;28;20080;-74
2022/04/14 01:14:58;;;;;;;11.23;9.68;;;;;;;9.25;65.74;101088.69;5068596;28;20502;-77
2022/04/14 01:17:23;;;;;;;17.38;10.98;;;;;;;9.08;63.59;101097.16;5068810;28;20952;-75
2022/04/14 01:19:49;;;;;;;23.15;10.02;;;;;;;8.71;64.10;101090.38;5068397;28;20718;-74
2022/04/14 01:22:38;;;;;;;16.38;11.80;;;;;;;8.79;62.82;101093.13;5065527;28;20507;-75
2022/04/14 01:25:04;;;;;;;16.52;10.95;;;;;;;8.94;65.15;101082.91;5069326;28;20078;-74
2022/04/14 01:27:30;;;;;;;14.90;10.40;;;;;;;8.98;63.32;101078.63;5069304;28;20143;-75
2022/04/14 01:29:55;;;;;;;12.13;9.52;;;;;;;8.94;65.79;101088.16;5068585;28;20492;-75
2022/04/14 01:32:22;;;;;;;13.65;10.00;;;;;;;8.66;65.83;101084.16;5067325;28;20479;-75
2022/04/14 01:34:49;;;;;;;14.98;10.10;;;;;;;8.73;64.27;101085.16;5067744;28;20105;-75
2022/04/14 01:37:14;;;;;;;14.65;10.43;;;;;;;8.73;65.02;101077.31;5067339;28;20066;-75
2022/04/14 01:39:40;;;;;;;16.05;10.32;;;;;;;8.83;63.82;101087.09;5065817;28;20641;-75
2022/04/14 01:42:06;;;;;;;15.43;9.38;;;;;;;8.91;65.29;101079.38;5067861;28;20135;-74
2022/04/14 01:44:32;;;;;;;13.52;9.95;;;;;;;9.00;66.23;101084.78;5068082;28;20408;-75
2022/04/14 01:46:57;;;;;;;23.38;12.05;;;;;;;8.98;65.12;101094.34;5068538;28;20121;-74
2022/04/14 01:49:23;;;;;;;26.38;12.82;;;;;;;8.83;64.38;101084.50;5068875;28;20124;-74
2022/04/14 01:51:49;;;;;;;23.40;12.07;;;;;;;8.83;65.62;101090.59;5068830;28;20048;-76
2022/04/14 01:54:15;;;;;;;19.27;11.38;;;;;;;8.79;65.26;101087.91;5069546;28;20052;-75
2022/04/14 01:56:41;;;;;;;15.68;9.48;;;;;;;8.65;65.93;101074.56;5069681;28;20047;-76
2022/04/14 01:59:07;;;;;;;17.10;11.63;;;;;;;8.62;68.06;101084.97;5068909;28;20125;-77
2022/04/14 02:01:33;;;;;;;21.13;10.65;;;;;;;8.69;67.94;101086.84;5066429;28;20155;-74
2022/04/14 02:03:59;;;;;;;18.33;10.45;;;;;;;8.73;67.31;101093.88;5070778;28;20048;-74
2022/04/14 02:06:25;;;;;;;14.57;9.93;;;;;;;8.73;67.12;101075.56;5069758;28;20051;-73
2022/04/14 02:08:50;;;;;;;18.75;10.65;;;;;;;8.79;67.10;101096.63;5069137;28;20456;-74
2022/04/14 02:11:16;;;;;;;22.83;10.32;;;;;;;8.91;65.72;101087.22;5070328;28;20692;-76
2022/04/14 02:13:43;;;;;;;17.83;10.68;;;;;;;8.73;64.49;101087.78;5069449;28;20046;-77
2022/04/14 02:16:10;;;;;;;14.60;10.45;;;;;;;8.79;64.45;101094.00;5069377;28;20037;-77
2022/04/14 02:18:35;;;;;;;13.13;9.73;;;;;;;8.77;64.49;101089.59;5062754;28;20180;-73
2022/04/14 02:21:01;;;;;;;16.42;10.05;;;;;;;8.54;64.36;101092.66;5063283;28;20054;-76
2022/04/14 02:23:27;;;;;;;15.50;11.57;;;;;;;8.56;64.10;101093.56;5068409;28;20032;-76
2022/04/14 02:25:53;;;;;;;18.92;12.70;;;;;;;8.53;63.97;101098.75;5066010;28;20396;-73
2022/04/14 02:28:19;;;;;;;16.15;10.48;;;;;;;8.51;65.54;101092.59;5064899;28;20048;-74
2022/04/14 02:30:46;;;;;;;14.20;10.90;;;;;;;8.53;64.68;101098.75;5067615;28;20281;-77
2022/04/14 02:33:11;;;;;;;16.65;11.27;;;;;;;8.41;63.42;101106.38;5064134;28;20048;-75
2022/04/14 02:35:37;;;;;;;16.77;12.77;;;;;;;8.50;61.68;101098.72;5066457;28;20047;-74
2022/04/14 02:38:02;;;;;;;17.95;13.65;;;;;;;8.77;60.43;101103.56;5064218;28;20075;-75
2022/04/14 02:40:28;;;;;;;19.63;13.75;;;;;;;8.64;63.11;101088.50;5072214;28;20139;-74
2022/04/14 02:42:54;;;;;;;18.88;12.27;;;;;;;8.63;63.76;101094.56;5070952;28;20403;-75
2022/04/14 02:45:27;;;;;;;18.00;12.65;;;;;;;8.53;62.29;101104.00;5072631;28;20044;-75
2022/04/14 02:47:53;;;;;;;18.77;12.73;;;;;;;8.40;61.11;101095.00;5068581;28;20472;-75
2022/04/14 02:50:20;;;;;;;20.88;12.90;;;;;;;8.56;61.32;101106.66;5065004;28;20119;-75
2022/04/14 02:52:49;;;;;;;24.23;12.32;;;;;;;8.50;63.16;101105.66;5069284;28;20076;-76
2022/04/14 02:55:16;;;;;;;16.75;13.35;;;;;;;8.33;65.88;101107.91;5066374;28;20044;-77
2022/04/14 02:57:42;;;;;;;18.70;13.60;;;;;;;8.35;64.53;101104.47;5067455;28;20170;-76
2022/04/14 03:00:09;;;;;;;27.55;13.93;;;;;;;8.33;65.46;101107.91;5069471;28;20147;-75
2022/04/14 03:02:35;;;;;;;18.60;13.40;;;;;;;8.30;65.71;101108.72;5070557;28;20040;-75
2022/04/14 03:05:02;;;;;;;21.65;13.85;;;;;;;8.09;65.74;101103.94;5067199;28;20041;-78
2022/04/14 03:07:28;;;;;;;24.95;14.23;;;;;;;7.90;64.12;101120.94;5068068;28;20101;-75
2022/04/14 03:09:54;;;;;;;21.13;14.07;;;;;;;8.14;62.73;101117.97;5067013;28;20044;-76
2022/04/14 03:12:20;;;;;;;19.67;14.25;;;;;;;8.07;62.22;101125.66;5069007;28;20044;-75
2022/04/14 03:14:50;;;;;;;18.77;14.52;;;;;;;8.08;60.30;101112.63;5067238;28;20056;-76
2022/04/14 03:17:15;;;;;;;24.95;13.52;;;;;;;8.13;60.39;101123.19;5067964;28;20052;-76
2022/04/14 03:19:41;;;;;;;19.85;13.65;;;;;;;8.10;61.01;101126.63;5069257;28;20055;-76
2022/04/14 03:22:06;;;;;;;20.52;14.90;;;;;;;7.98;61.56;101116.78;5070457;28;20154;-76
2022/04/14 03:24:32;;;;;;;18.20;14.60;;;;;;;7.83;61.78;101125.13;5066016;28;20057;-76
2022/04/14 03:26:58;;;;;;;20.23;13.30;;;;;;;7.83;61.53;101119.91;5070393;28;20032;-76
2022/04/14 03:29:24;;;;;;;18.65;14.52;;;;;;;7.86;62.48;101132.16;5065377;28;20384;-75
2022/04/14 03:31:49;;;;;;;22.08;14.30;;;;;;;7.91;62.57;101127.03;5064250;28;20518;-77
2022/04/14 03:34:15;;;;;;;16.55;13.70;;;;;;;7.73;61.16;101125.78;5066054;28;20040;-76
2022/04/14 03:36:40;;;;;;;23.92;14.38;;;;;;;7.96;61.06;101131.53;5065352;28;20545;-75
2022/04/14 03:39:06;;;;;;;18.23;14.50;;;;;;;7.60;61.69;101110.66;5065112;28;20774;-77
2022/04/14 03:41:32;;;;;;;26.17;15.07;;;;;;;7.66;62.40;101136.94;5065177;28;20542;-75
2022/04/14 03:43:57;;;;;;;20.95;13.00;;;;;;;7.66;60.66;101134.34;5064230;28;20033;-75
2022/04/14 03:46:23;;;;;;;14.73;12.20;;;;;;;7.61;60.96;101143.78;5062771;28;20117;-75
2022/04/14 03:48:49;;;;;;;22.10;13.95;;;;;;;7.69;61.42;101142.22;5061786;28;20546;-75
2022/04/14 03:51:15;;;;;;;18.77;15.07;;;;;;;7.54;61.05;101150.59;5066233;28;20053;-78
2022/04/14 03:53:44;;;;;;;24.70;14.05;;;;;;;7.70;60.75;101133.56;5064342;28;20043;-77
2022/04/14 03:56:10;;;;;;;20.92;15.57;;;;;;;7.67;60.89;101148.28;5068220;28;20058;-76
2022/04/14 03:58:36;;;;;;;18.55;14.15;;;;;;;7.58;63.02;101149.78;5061502;28;20432;-75
2022/04/14 04:01:02;;;;;;;16.92;14.30;;;;;;;7.68;64.96;101153.53;5062618;28;20147;-75
2022/04/14 04:03:28;;;;;;;22.15;15.45;;;;;;;7.83;61.92;101142.56;5065169;28;20225;-75
2022/04/14 04:05:54;;;;;;;27.63;16.13;;;;;;;7.87;63.09;101144.41;5067385;28;20044;-76
2022/04/14 04:08:19;;;;;;;22.02;14.65;;;;;;;7.81;64.86;101147.72;5064605;28;20044;-75
2022/04/14 04:10:45;;;;;;;28.08;15.07;;;;;;;7.96;64.70;101148.94;5062978;28;20420;-77
2022/04/14 04:13:11;;;;;;;19.75;15.10;;;;;;;7.85;64.23;101143.47;5067607;28;20097;-75
2022/04/14 04:15:36;;;;;;;20.55;15.25;;;;;;;7.94;64.95;101148.03;5062849;28;20056;-76
2022/04/14 04:18:04;;;;;;;25.73;16.27;;;;;;;7.97;65.26;101150.72;5072056;28;20060;-76
2022/04/14 04:20:30;;;;;;;25.35;15.95;;;;;;;7.93;65.78;101144.50;5063065;28;20464;-77
2022/04/14 04:22:55;;;;;;;32.28;16.42;;;;;;;7.88;64.99;101153.09;5061718;28;20050;-77
2022/04/14 04:25:21;;;;;;;22.88;15.43;;;;;;;7.93;60.46;101165.41;5065197;28;20204;-76
2022/04/14 04:27:47;;;;;;;18.55;14.18;;;;;;;8.00;60.66;101166.44;5063681;28;21517;-77
2022/04/14 04:30:12;;;;;;;19.90;17.02;;;;;;;8.10;60.12;101173.66;5066783;28;20036;-77
2022/04/14 04:32:39;;;;;;;26.75;16.83;;;;;;;8.02;59.80;101165.63;5068849;28;20067;-76
2022/04/14 04:35:08;;;;;;;28.30;16.58;;;;;;;8.02;63.65;101160.41;5068877;28;20054;-79
2022/04/14 04:37:34;;;;;;;23.55;17.80;;;;;;;8.23;63.01;101174.81;5063785;28;20598;-79
2022/04/14 04:40:00;;;;;;;32.83;17.33;;;;;;;8.22;63.68;101173.94;5062899;28;20059;-75
2022/04/14 04:42:25;;;;;;;22.95;16.70;;;;;;;8.06;63.34;101179.66;5064042;28;20546;-77
2022/04/14 04:44:51;;;;;;;27.00;17.33;;;;;;;8.20;63.22;101179.97;5061504;28;20028;-74
2022/04/14 04:47:23;;;;;;;24.95;15.43;;;;;;;8.12;64.33;101190.25;5068297;28;20040;-77
2022/04/14 04:49:49;;;;;;;23.77;16.73;;;;;;;8.13;61.67;101180.69;5066796;28;20051;-76
2022/04/14 04:52:16;;;;;;;36.97;22.17;;;;;;;8.14;63.19;101177.22;5067004;28;20048;-77
2022/04/14 04:54:42;;;;;;;41.67;27.85;;;;;;;8.30;61.29;101176.69;5065400;28;20101;-76
2022/04/14 04:57:08;;;;;;;30.30;23.08;;;;;;;8.27;62.77;101191.47;5064774;28;20036;-76
2022/04/14 04:59:36;;;;;;;38.90;21.77;;;;;;;8.20;63.21;101179.97;5066805;28;20051;-78
2022/04/14 05:02:01;;;;;;;24.63;19.65;;;;;;;8.44;61.32;101182.25;5059037;28;20112;-77
2022/04/14 05:04:27;;;;;;;22.48;16.88;;;;;;;8.64;59.16;101190.53;5070183;28;20036;-75
2022/04/14 05:06:52;;;;;;;23.52;16.60;;;;;;;8.41;59.54;101183.09;5064358;28;23282;-76
2022/04/14 05:09:18;;;;;;;26.90;18.67;;;;;;;8.66;58.54;101194.94;5062905;28;20048;-75
2022/04/14 05:11:44;;;;;;;24.38;17.38;;;;;;;8.61;58.98;101196.56;5066715;28;20099;-75
2022/04/14 05:14:09;;;;;;;29.17;17.75;;;;;;;8.75;59.11;101189.00;5058886;28;20057;-75
2022/04/14 05:16:35;;;;;;;23.80;17.10;;;;;;;8.79;60.48;101188.22;5059494;28;20696;-76
2022/04/14 05:19:01;;;;;;;25.58;16.40;;;;;;;8.96;58.42;101201.63;5061599;28;20597;-76
2022/04/14 05:21:26;;;;;;;31.58;17.13;;;;;;;9.04;60.24;101204.41;5059432;28;20055;-75
2022/04/14 05:23:51;;;;;;;28.50;19.00;;;;;;;9.08;60.27;101200.97;5058955;28;20051;-76
2022/04/14 05:26:17;;;;;;;24.00;17.70;;;;;;;9.56;59.47;101205.34;5063095;28;20040;-74
2022/04/14 05:28:43;;;;;;;31.38;18.48;;;;;;;10.07;57.80;101216.63;5064709;28;20048;-82
2022/04/14 05:31:08;;;;;;;21.92;17.27;;;;;;;10.38;56.71;101207.47;5061216;28;20040;-76
2022/04/14 05:33:34;;;;;;;21.48;17.65;;;;;;;10.73;53.55;101207.06;5068153;28;20043;-81
2022/04/14 05:36:00;;;;;;;25.90;17.98;;;;;;;11.08;54.04;101209.22;5065347;28;20424;-79
2022/04/14 05:38:27;;;;;;;26.77;16.15;;;;;;;11.41;52.10;101214.78;5061999;28;20040;-73
2022/04/14 05:40:53;;;;;;;42.15;16.67;;;;;;;11.66;50.32;101201.88;5065531;28;20047;-76
2022/04/14 05:43:21;;;;;;;30.30;17.08;;;;;;;11.99;51.17;101208.31;5066783;28;20123;-79
2022/04/14 05:45:48;;;;;;;21.30;17.35;;;;;;;12.20;51.93;101202.31;5067291;28;20491;-74
2022/04/14 05:48:14;;;;;;;36.20;18.85;;;;;;;12.13;51.14;101213.66;5066287;28;20377;-74
2022/04/14 05:50:44;;;;;;;25.45;15.93;;;;;;;12.51;52.22;101199.84;5068034;28;20079;-73
2022/04/14 05:53:10;;;;;;;23.30;18.10;;;;;;;12.86;50.74;101211.38;5073471;28;20044;-74
2022/04/14 05:55:35;;;;;;;29.13;17.00;;;;;;;13.23;48.70;101208.84;5072208;28;20606;-74
2022/04/14 05:58:04;;;;;;;19.98;15.43;;;;;;;13.29;48.85;101195.69;5072828;28;20048;-73
2022/04/14 06:00:34;;;;;;;24.60;16.05;;;;;;;13.51;46.97;101201.03;5069858;28;20059;-74
2022/04/14 06:03:00;;;;;;;23.90;15.90;;;;;;;13.58;45.81;101201.88;5069558;28;20500;-75
2022/04/14 06:05:27;;;;;;;19.80;15.23;;;;;;;13.73;46.02;101200.13;5062171;28;20167;-74
2022/04/14 06:07:53;;;;;;;19.83;15.50;;;;;;;13.99;46.76;101214.19;5071654;28;20052;-74
2022/04/14 06:10:18;;;;;;;24.02;12.85;;;;;;;14.17;43.99;101213.28;5071623;28;20055;-74
2022/04/14 06:12:44;;;;;;;21.60;14.68;;;;;;;14.11;44.80;101204.47;5074055;28;20473;-73
2022/04/14 06:15:10;;;;;;;21.40;13.10;;;;;;;14.39;45.85;101216.75;5077155;28;20036;-74
2022/04/14 06:17:35;;;;;;;29.27;14.18;;;;;;;14.18;47.13;101202.69;5075866;28;20043;-73
2022/04/14 06:20:03;;;;;;;21.52;13.40;;;;;;;13.88;48.82;101207.16;5077178;28;20075;-74
2022/04/14 06:22:29;;;;;;;30.45;13.10;;;;;;;13.54;46.71;101219.47;5076743;28;20036;-73
2022/04/14 06:24:57;;;;;;;46.03;15.73;;;;;;;13.27;45.08;101208.03;5075465;28;20048;-75
2022/04/14 06:27:23;;;;;;;20.88;13.15;;;;;;;13.16;45.47;101222.91;5076340;28;20070;-75
2022/04/14 06:29:48;;;;;;;19.27;14.20;;;;;;;13.21;50.24;101205.31;5075365;28;20094;-76
2022/04/14 06:32:14;;;;;;;20.02;13.82;;;;;;;13.43;46.06;101219.44;5075514;28;20056;-73
2022/04/14 06:34:39;;;;;;;21.52;13.63;;;;;;;13.47;44.70;101225.63;5076467;28;20040;-75
2022/04/14 06:37:04;;;;;;;29.20;13.80;;;;;;;13.48;46.15;101208.91;5072977;28;20100;-73
2022/04/14 06:39:30;;;;;;;20.65;13.07;;;;;;;13.52;46.12;101215.94;5075190;28;20131;-74
2022/04/14 06:41:55;;;;;;;29.98;13.48;;;;;;;13.66;45.90;101218.59;5074545;28;20028;-74
2022/04/14 06:44:21;;;;;;;21.08;12.48;;;;;;;13.58;44.28;101231.78;5075611;28;20039;-74
2022/04/14 06:46:46;;;;;;;23.77;12.88;;;;;;;13.60;43.27;101223.84;5073413;28;20100;-74
2022/04/14 06:49:12;;;;;;;21.00;11.23;;;;;;;13.47;50.15;101207.16;5076133;28;20048;-74
2022/04/14 06:51:37;;;;;;;28.17;13.68;;;;;;;13.51;43.09;101217.72;5073011;28;20625;-74
2022/04/14 06:54:03;;;;;;;20.08;13.50;;;;;;;13.73;47.48;101212.44;5075933;28;21628;-74
2022/04/14 06:56:28;;;;;;;23.60;12.73;;;;;;;13.71;41.53;101225.63;5074804;28;20557;-74
2022/04/14 06:58:54;;;;;;;18.00;12.00;;;;;;;13.88;42.37;101224.72;5076654;28;20438;-75
2022/04/14 07:01:19;;;;;;;19.27;12.73;;;;;;;13.90;41.49;101221.22;5073363;28;20067;-75
2022/04/14 07:03:45;;;;;;;21.67;12.80;;;;;;;13.84;40.90;101230.91;5074891;28;20048;-75
2022/04/14 07:06:11;;;;;;;19.27;11.75;;;;;;;13.99;40.86;101220.34;5073752;28;20055;-74
2022/04/14 07:08:38;;;;;;;16.13;12.35;;;;;;;14.14;41.25;101217.69;5074700;28;20088;-77
2022/04/14 07:11:04;;;;;;;22.20;11.93;;;;;;;14.00;42.07;101208.00;5074015;28;20101;-75
2022/04/14 07:13:30;;;;;;;17.83;12.35;;;;;;;14.05;42.46;101204.50;5077560;28;20117;-74
2022/04/14 07:15:57;;;;;;;27.60;12.43;;;;;;;14.02;42.12;101215.03;5070843;28;20073;-74
2022/04/14 07:18:24;;;;;;;16.63;11.73;;;;;;;14.17;40.11;101208.00;5076751;28;20127;-76
2022/04/14 07:20:49;;;;;;;17.58;10.38;;;;;;;14.33;40.06;101212.38;5078169;28;20036;-74
2022/04/14 07:23:15;;;;;;;28.08;11.73;;;;;;;14.35;39.85;101207.94;5073094;28;20101;-75
2022/04/14 07:25:40;;;;;;;17.13;11.70;;;;;;;14.38;41.14;101207.94;5075040;28;20075;-74
2022/04/14 07:28:07;;;;;;;17.00;10.65;;;;;;;14.30;41.74;101202.66;5074026;28;20047;-74
2022/04/14 07:30:33;;;;;;;18.00;12.68;;;;;;;14.49;41.91;101211.44;5076098;28;20460;-75
2022/04/14 07:33:00;;;;;;;16.63;10.68;;;;;;;14.52;40.02;101213.19;5071596;28;20043;-74
2022/04/14 07:35:26;;;;;;;18.17;11.07;;;;;;;14.53;39.68;101210.53;5073607;28;20067;-73
2022/04/14 07:37:52;;;;;;;14.93;10.45;;;;;;;14.68;37.88;101214.03;5077003;28;20048;-75
2022/04/14 07:40:19;;;;;;;18.15;9.50;;;;;;;14.59;42.05;101212.31;5073842;28;20046;-74
2022/04/14 07:42:46;;;;;;;17.48;11.80;;;;;;;14.81;37.61;101204.28;5073425;28;20557;-75
2022/04/14 07:45:15;;;;;;;20.25;11.07;;;;;;;14.93;37.61;101218.31;5074100;28;20032;-75
2022/04/14 07:47:44;;;;;;;14.10;9.88;;;;;;;14.90;39.06;101214.81;5073071;28;20044;-73
2022/04/14 07:50:12;;;;;;;13.07;9.38;;;;;;;14.77;37.58;101214.88;5074175;28;20043;-75
2022/04/14 07:52:51;;;;;;;18.80;10.30;;;;;;;14.98;37.87;101220.94;5072414;28;20048;-73
2022/04/14 07:55:19;;;;;;;18.98;11.10;;;;;;;15.07;37.01;101223.53;5074194;28;20044;-74
2022/04/14 07:57:44;;;;;;;14.98;10.05;;;;;;;15.22;36.65;101226.97;5076314;28;20053;-74
2022/04/14 08:00:10;;;;;;;14.07;9.13;;;;;;;15.16;36.99;101222.59;5075432;28;20035;-75
2022/04/14 08:02:46;;;;;;;13.80;8.68;;;;;;;15.27;36.01;101234.00;5070102;28;20123;-74
2022/04/14 08:05:11;;;;;;;22.80;8.05;;;;;;;15.39;34.98;101222.47;5076711;28;20727;-74
2022/04/14 08:07:36;;;;;;;11.05;6.60;;;;;;;15.55;34.28;101224.13;5073772;28;20047;-75
2022/04/14 08:10:02;;;;;;;12.43;6.53;;;;;;;15.50;34.75;101230.31;5075584;28;20660;-75
2022/04/14 08:12:29;;;;;;;7.20;5.35;;;;;;;15.42;34.41;101225.09;5074646;28;21553;-74
2022/04/14 08:14:55;;;;;;;12.18;6.25;;;;;;;15.55;33.31;101228.53;5074474;28;20028;-74
2022/04/14 08:17:20;;;;;;;32.63;6.90;;;;;;;15.63;34.37;101232.84;5075148;28;20036;-77
2022/04/14 08:19:46;;;;;;;9.43;6.38;;;;;;;15.59;34.53;101230.25;5074625;28;20566;-76
2022/04/14 08:22:11;;;;;;;11.27;6.78;;;;;;;15.85;33.97;101234.47;5072961;28;20040;-75
2022/04/14 08:24:47;;;;;;;12.43;5.53;;;;;;;15.79;33.74;101228.34;5071134;28;20476;-75
2022/04/14 08:27:13;;;;;;;13.32;7.22;;;;;;;15.79;32.61;101228.34;5072822;28;20039;-77
2022/04/14 08:29:39;;;;;;;14.98;7.30;;;;;;;15.95;33.22;101241.47;5072886;28;20109;-74
2022/04/14 08:32:07;;;;;;;11.65;6.95;;;;;;;15.85;32.71;101235.38;5074253;28;20051;-74
2022/04/14 08:34:33;;;;;;;9.43;6.60;;;;;;;15.88;32.05;101230.06;5070956;28;20044;-74
2022/04/14 08:36:59;;;;;;;9.18;5.85;;;;;;;15.85;32.71;101232.75;5075369;28;20056;-73
2022/04/14 08:39:25;;;;;;;10.88;6.95;;;;;;;15.69;32.65;101224.00;5071659;28;20131;-76
2022/04/14 08:42:00;;;;;;;14.02;8.00;;;;;;;16.00;34.04;101234.38;5074653;28;20802;-76
2022/04/14 08:44:30;;;;;;;10.88;6.95;;;;;;;16.14;32.05;101232.47;5072697;28;20667;-75
2022/04/14 08:46:58;;;;;;;13.00;7.80;;;;;;;15.94;32.94;101219.41;5074850;28;20093;-73
2022/04/14 08:49:24;;;;;;;11.30;8.02;;;;;;;16.31;32.89;101224.34;5071882;28;20579;-75
2022/04/14 08:51:50;;;;;;;13.23;7.50;;;;;;;16.38;32.90;101220.72;5067997;28;20064;-75
2022/04/14 08:54:19;;;;;;;9.38;6.50;;;;;;;16.19;32.26;101219.16;5070935;28;20337;-74
2022/04/14 08:56:46;;;;;;;14.88;6.57;;;;;;;16.06;31.90;101229.03;5065861;28;20460;-74
2022/04/14 08:59:16;;;;;;;11.27;6.15;;;;;;;16.01;31.51;101229.06;5070390;28;20052;-74
2022/04/14 09:01:42;;;;;;;10.80;7.47;;;;;;;16.21;32.03;101231.50;5068794;28;20072;-74
2022/04/14 09:04:08;;;;;;;9.20;6.28;;;;;;;16.28;33.77;101223.50;5073833;28;20135;-74
2022/04/14 09:06:34;;;;;;;12.68;7.22;;;;;;;16.42;32.51;101218.94;5074767;28;20484;-74
2022/04/14 09:09:00;;;;;;;11.70;6.47;;;;;;;16.39;31.57;101211.03;5071351;28;20039;-75
2022/04/14 09:11:27;;;;;;;17.13;6.65;;;;;;;16.65;31.90;101221.31;5074454;28;20028;-74
2022/04/14 09:13:53;;;;;;;19.35;6.72;;;;;;;16.70;31.35;101215.97;5071343;28;20093;-76
2022/04/14 09:16:19;;;;;;;11.18;7.38;;;;;;;16.87;31.93;101217.50;5072927;28;20056;-73
2022/04/14 09:18:45;;;;;;;11.13;7.15;;;;;;;16.74;32.00;101215.91;5071349;28;21669;-74
2022/04/14 09:21:11;;;;;;;11.38;6.30;;;;;;;16.66;30.62;101209.81;5072602;28;20732;-75
2022/04/14 09:23:36;;;;;;;12.90;6.85;;;;;;;16.62;33.45;101202.78;5073166;28;20036;-73
2022/04/14 09:26:14;;;;;;;11.93;6.55;;;;;;;16.83;30.88;101199.91;5073959;28;20138;-75
2022/04/14 09:28:42;;;;;;;14.73;6.70;;;;;;;16.75;30.77;101199.09;5072013;28;20520;-75
2022/04/14 09:31:12;;;;;;;10.60;5.65;;;;;;;16.94;30.89;101201.53;5072162;28;20052;-76
2022/04/14 09:33:46;;;;;;;10.80;6.82;;;;;;;16.90;30.87;101191.88;5071562;28;20065;-74
2022/04/14 09:36:18;;;;;;;28.17;7.07;;;;;;;17.20;31.11;101201.16;5070468;28;20051;-75
2022/04/14 09:39:05;;;;;;;10.40;6.23;;;;;;;16.96;29.77;101195.31;5073229;28;20036;-74
2022/04/14 09:41:37;;;;;;;11.25;6.35;;;;;;;17.04;31.18;101195.19;5069975;28;20071;-77
2022/04/14 09:44:13;;;;;;;8.65;5.75;;;;;;;17.19;30.79;101191.47;5071524;28;20058;-76
2022/04/14 09:46:43;;;;;;;11.18;7.10;;;;;;;17.41;30.49;101179.59;5072038;28;20143;-73
2022/04/14 09:49:11;;;;;;;10.38;6.82;;;;;;;17.56;31.06;101173.19;5072456;28;20044;-75
2022/04/14 09:51:48;;;;;;;10.63;7.20;;;;;;;18.04;31.04;101175.91;5067752;28;20052;-74
2022/04/14 09:54:18;;;;;;;15.40;6.47;;;;;;;18.22;29.55;101168.50;5069164;28;20062;-74
2022/04/14 09:56:46;;;;;;;9.95;5.85;;;;;;;18.29;29.52;101170.13;5071903;28;20054;-74
2022/04/14 09:59:16;;;;;;;10.27;5.28;;;;;;;18.71;30.98;101157.75;5073256;28;20574;-76
2022/04/14 10:01:44;;;;;;;12.02;7.28;;;;;;;18.91;28.23;101170.59;5070123;28;20053;-77
2022/04/14 10:04:35;;;;;;;9.55;5.28;;;;;;;18.71;28.19;101160.41;5074220;28;20493;-74
2022/04/14 10:07:05;;;;;;;10.40;6.90;;;;;;;18.87;28.26;101155.66;5071846;28;20081;-73
2022/04/14 10:09:31;;;;;;;14.48;6.50;;;;;;;19.30;31.07;101164.41;5072755;28;20146;-75
2022/04/14 10:11:57;;;;;;;12.30;5.88;;;;;;;19.19;27.95;101151.34;5071651;28;20066;-75
2022/04/14 10:14:24;;;;;;;11.75;5.72;;;;;;;18.23;30.00;101146.34;5073341;28;21594;-74
2022/04/14 10:16:52;;;;;;;13.38;7.78;;;;;;;18.99;29.05;101143.88;5068335;28;20190;-75
2022/04/14 10:19:21;;;;;;;9.27;5.70;;;;;;;19.33;29.41;101148.38;5069048;28;20051;-77
2022/04/14 10:21:47;;;;;;;14.50;7.38;;;;;;;19.71;27.83;101152.75;5071542;28;20044;-74
2022/04/14 10:24:13;;;;;;;10.48;6.30;;;;;;;19.23;27.84;101149.50;5072915;28;20514;-74
2022/04/14 10:26:39;;;;;;;11.93;7.30;;;;;;;20.09;28.90;101145.53;5071361;28;20085;-76
2022/04/14 10:29:06;;;;;;;17.08;7.43;;;;;;;20.29;28.92;101136.97;5071332;28;20450;-74
2022/04/14 10:31:36;;;;;;;11.75;6.78;;;;;;;19.94;27.67;101148.59;5072014;28;20075;-73
2022/04/14 10:34:04;;;;;;;14.27;7.25;;;;;;;20.16;31.63;101140.91;5072548;28;20044;-75
2022/04/14 10:36:34;;;;;;;12.32;7.60;;;;;;;20.31;30.50;101140.47;5070065;28;20056;-74
2022/04/14 10:39:01;;;;;;;11.05;6.30;;;;;;;20.29;28.62;101154.75;5070508;28;20032;-74
2022/04/14 10:41:31;;;;;;;11.02;6.88;;;;;;;20.53;28.74;101150.50;5072393;28;20036;-74
2022/04/14 10:44:01;;;;;;;9.38;6.50;;;;;;;20.89;30.15;101145.88;5070638;28;20071;-76
2022/04/14 10:46:31;;;;;;;11.57;6.43;;;;;;;21.17;28.16;101140.56;5071270;28;20063;-74
2022/04/14 10:49:13;;;;;;;11.75;5.80;;;;;;;19.99;28.97;101128.03;5073127;28;20105;-74
2022/04/14 10:51:39;;;;;;;18.55;5.47;;;;;;;20.05;26.75;101141.19;5066181;28;20098;-73
2022/04/14 10:54:08;;;;;;;11.20;6.43;;;;;;;20.00;29.64;101140.47;5072523;28;20036;-73
2022/04/14 10:56:34;;;;;;;12.13;5.90;;;;;;;20.58;28.11;101144.16;5063872;28;20043;-75
2022/04/14 10:59:00;;;;;;;8.88;6.00;;;;;;;21.21;28.26;101154.66;5073306;28;20048;-74
2022/04/14 11:01:50;;;;;;;12.43;5.47;;;;;;;21.33;29.33;101142.69;5071697;28;20055;-72
2022/04/14 11:04:23;;;;;;;7.68;4.95;;;;;;;21.01;27.76;101140.16;5072681;28;20055;-77
2022/04/14 11:06:51;;;;;;;7.93;5.88;;;;;;;21.06;26.83;101135.53;5073541;28;20051;-74
2022/04/14 11:09:48;;;;;;;9.85;5.40;;;;;;;20.93;28.46;101133.31;5074215;28;20204;-77
2022/04/14 11:12:23;;;;;;;7.68;4.88;;;;;;;20.62;27.09;101140.47;5073755;28;21423;-72
2022/04/14 11:14:56;;;;;;;8.57;5.75;;;;;;;20.44;26.84;101143.66;5076597;28;20044;-77
2022/04/14 11:17:30;;;;;;;12.75;5.50;;;;;;;20.82;28.66;101128.34;5073664;28;20123;-74